Time;durP1;ratioP1;P1;durP2;ratioP2;P2;SDS_P1;SDS_P2;PMS_P1;PMS_P2;Temp;Humidity;BMP_temperature;BMP_pressure;BME280_temperature;BME280_humidity;BME280_pressure;Samples;Min_cycle;Max_cycle;Signal;HPM_P1;HPM_P2
2023/09/05 00:01:33;;;;;;;0.40;0.40;;;23.10;58.30;;;23.23;43.95;95898.88;5014415;28;20300;-33
2023/09/05 00:04:00;;;;;;;0.40;0.40;;;23.10;58.30;;;23.17;43.88;95895.31;5013885;28;20210;-34
2023/09/05 00:06:27;;;;;;;0.30;0.30;;;23.00;58.30;;;23.18;44.06;95898.81;5013180;28;20279;-35
2023/09/05 00:08:54;;;;;;;0.40;0.40;;;23.00;58.60;;;23.18;44.08;95890.78;5014349;28;20582;-34
2023/09/05 00:11:21;;;;;;;0.40;0.40;;;23.00;58.70;;;23.18;44.25;95882.75;5014034;28;20224;-34
2023/09/05 00:13:48;;;;;;;0.40;0.40;;;23.00;58.80;;;23.21;44.29;95886.78;5014001;28;20271;-35
2023/09/05 00:16:15;;;;;;;0.40;0.40;;;23.00;59.00;;;23.21;44.37;95879.56;5013735;28;20203;-38
2023/09/05 00:18:44;;;;;;;0.50;0.50;;;23.00;59.20;;;23.21;44.08;95876.88;5013645;28;20640;-36
2023/09/05 00:21:15;;;;;;;0.40;0.40;;;23.00;59.00;;;23.18;44.28;95875.53;5013671;28;20292;-32
2023/09/05 00:23:42;;;;;;;0.30;0.30;;;23.00;59.00;;;23.18;44.27;95874.72;5014215;28;20595;-32
2023/09/05 00:26:09;;;;;;;0.40;0.40;;;23.00;58.90;;;23.18;44.29;95874.72;5012658;28;20233;-32
2023/09/05 00:28:36;;;;;;;0.32;0.32;;;22.90;58.90;;;23.17;44.31;95870.44;5013706;28;20659;-34
2023/09/05 00:31:03;;;;;;;0.40;0.40;;;22.90;59.00;;;23.18;44.35;95877.41;5012612;28;20644;-33
2023/09/05 00:33:31;;;;;;;0.40;0.40;;;22.90;59.10;;;23.20;44.56;95858.41;5012760;28;20205;-33
2023/09/05 00:35:58;;;;;;;0.40;0.40;;;22.90;59.30;;;23.24;44.22;95860.34;5013660;28;20193;-32
2023/09/05 00:38:25;;;;;;;0.40;0.40;;;22.90;59.30;;;23.27;44.59;95861.72;5012397;28;20246;-34
2023/09/05 00:40:53;;;;;;;0.40;0.40;;;22.90;59.20;;;23.30;44.07;95856.66;5012736;28;20586;-33
2023/09/05 00:43:21;;;;;;;0.40;0.40;;;23.00;59.40;;;23.27;44.14;95856.34;5012201;28;20220;-36
2023/09/05 00:45:51;;;;;;;0.40;0.40;;;23.00;59.20;;;23.23;44.12;95857.91;5013174;28;20284;-32
2023/09/05 00:48:27;;;;;;;0.40;0.40;;;23.00;59.00;;;23.16;44.15;95853.53;5098208;28;20201;-33
2023/09/05 00:50:57;;;;;;;0.40;0.40;;;23.00;58.90;;;23.10;44.32;95854.50;5012302;28;20278;-33
2023/09/05 00:53:25;;;;;;;0.40;0.40;;;23.00;59.00;;;23.08;44.05;95845.09;5013577;28;20196;-34
2023/09/05 00:55:53;;;;;;;0.40;0.40;;;22.90;58.80;;;23.02;44.30;95850.41;5012179;28;20201;-31
2023/09/05 00:58:22;;;;;;;0.30;0.30;;;22.90;58.70;;;22.97;44.43;95844.16;5013329;28;20285;-33
2023/09/05 01:00:49;;;;;;;0.40;0.40;;;22.80;58.80;;;22.96;44.39;95837.19;5013025;28;20201;-31
2023/09/05 01:03:16;;;;;;;0.40;0.40;;;22.80;58.90;;;22.94;44.32;95832.09;5012640;28;20241;-35
2023/09/05 01:05:50;;;;;;;0.40;0.40;;;22.80;58.90;;;22.92;44.31;95834.19;5013433;28;20572;-31
2023/09/05 01:08:38;;;;;;;0.40;0.40;;;22.80;59.00;;;22.92;44.67;95836.88;5012386;28;20203;-34
2023/09/05 01:11:08;;;;;;;0.60;0.60;;;22.80;59.20;;;22.93;44.66;95835.03;5012071;28;20608;-35
2023/09/05 01:13:39;;;;;;;0.40;0.40;;;22.80;59.20;;;22.97;44.65;95836.13;5012338;28;20191;-32
2023/09/05 01:16:06;;;;;;;0.40;0.40;;;22.80;59.50;;;22.97;44.53;95828.94;5013331;28;20583;-33
2023/09/05 01:18:33;;;;;;;0.40;0.40;;;22.70;59.00;;;22.97;44.30;95831.63;5012508;28;20240;-35
2023/09/05 01:21:20;;;;;;;0.40;0.40;;;22.70;59.10;;;22.96;44.74;95840.69;5012956;28;20202;-35
2023/09/05 01:23:57;;;;;;;0.50;0.50;;;22.70;59.30;;;22.96;44.41;95837.19;5012694;28;20230;-33
2023/09/05 01:26:25;;;;;;;0.40;0.40;;;22.70;59.30;;;23.00;44.35;95835.66;5012354;28;20209;-32
2023/09/05 01:28:53;;;;;;;0.43;0.43;;;22.70;59.20;;;22.98;44.88;95833.22;5011658;28;20663;-33
2023/09/05 01:31:21;;;;;;;0.47;0.47;;;22.70;59.30;;;23.00;44.57;95830.31;5011874;28;20213;-32
2023/09/05 01:33:48;;;;;;;0.40;0.40;;;22.80;59.40;;;23.00;44.86;95836.44;5013064;28;20605;-31
2023/09/05 01:36:15;;;;;;;0.40;0.40;;;22.70;59.30;;;23.01;44.51;95845.31;5011584;28;20273;-35
2023/09/05 01:38:43;;;;;;;0.43;0.43;;;22.80;59.40;;;22.99;44.66;95845.53;5012694;28;20600;-34
2023/09/05 01:41:11;;;;;;;0.43;0.43;;;22.80;59.20;;;22.97;44.62;95842.31;5011559;28;20206;-35
2023/09/05 01:43:38;;;;;;;0.40;0.40;;;22.80;59.20;;;22.97;44.34;95841.50;5012026;28;20200;-34
2023/09/05 01:46:05;;;;;;;0.40;0.40;;;22.70;59.20;;;22.97;44.58;95838.81;5011441;28;20552;-34
2023/09/05 01:48:32;;;;;;;0.32;0.32;;;22.80;59.30;;;22.97;44.64;95833.47;5011511;28;20651;-32
2023/09/05 01:50:59;;;;;;;0.40;0.40;;;22.70;59.00;;;22.97;44.26;95839.63;5011379;28;20643;-36
2023/09/05 01:53:26;;;;;;;0.40;0.40;;;22.70;59.10;;;22.97;44.50;95828.94;5011851;28;20591;-38
2023/09/05 01:55:53;;;;;;;0.40;0.40;;;22.70;59.10;;;22.96;44.20;95832.66;5011307;28;20631;-37
2023/09/05 01:58:20;;;;;;;0.40;0.40;;;22.70;59.10;;;22.96;44.39;95831.84;5011516;28;20207;-31
2023/09/05 02:00:47;;;;;;;0.40;0.40;;;22.70;59.00;;;22.96;44.27;95831.84;5011276;28;20206;-32
2023/09/05 02:03:15;;;;;;;0.50;0.50;;;22.70;59.20;;;22.96;44.39;95832.66;5012291;28;20246;-34
2023/09/05 02:05:42;;;;;;;0.30;0.30;;;22.70;59.20;;;22.97;44.48;95834.28;5012115;28;20547;-33
2023/09/05 02:08:09;;;;;;;0.30;0.30;;;22.70;59.10;;;22.98;44.46;95840.44;5012052;28;20606;-35
2023/09/05 02:10:36;;;;;;;0.40;0.40;;;22.70;59.10;;;22.97;44.21;95836.13;5011474;28;20267;-35
2023/09/05 02:13:04;;;;;;;0.40;0.40;;;22.70;59.10;;;22.92;44.06;95831.53;5010979;28;20597;-34
2023/09/05 02:15:32;;;;;;;0.35;0.35;;;22.70;58.90;;;22.89;44.44;95836.56;5011975;28;20221;-31
2023/09/05 02:18:02;;;;;;;0.40;0.40;;;22.70;59.00;;;22.88;44.43;95841.13;5011907;28;20619;-32
2023/09/05 02:20:29;;;;;;;0.50;0.50;;;22.70;59.00;;;22.88;44.47;95837.63;5011228;28;20207;-37
2023/09/05 02:22:56;;;;;;;0.40;0.40;;;22.70;59.00;;;22.85;44.27;95837.06;5012204;28;20629;-38
2023/09/05 02:25:23;;;;;;;0.40;0.40;;;22.60;58.80;;;22.83;44.31;95843.72;5012413;28;20199;-34
2023/09/05 02:27:50;;;;;;;0.45;0.45;;;22.60;58.90;;;22.82;44.43;95836.75;5010899;28;20226;-34
2023/09/05 02:30:17;;;;;;;0.38;0.38;;;22.60;58.90;;;22.80;44.34;95841.53;5013996;28;20241;-31
2023/09/05 02:32:44;;;;;;;0.40;0.40;;;22.60;59.00;;;22.80;44.32;95841.53;5015290;28;20213;-33
2023/09/05 02:35:14;;;;;;;0.40;0.40;;;22.60;58.90;;;22.77;44.32;95834.81;5015833;28;20236;-32
2023/09/05 02:37:41;;;;;;;0.40;0.40;;;22.60;58.90;;;22.78;44.31;95833.75;5014330;28;20216;-35
2023/09/05 02:40:09;;;;;;;0.40;0.40;;;22.60;59.10;;;22.78;44.42;95830.28;5015160;28;20206;-33
2023/09/05 02:42:37;;;;;;;0.50;0.50;;;22.60;59.10;;;22.77;44.42;95829.47;5015066;28;20271;-34
2023/09/05 02:45:04;;;;;;;0.40;0.40;;;22.60;59.10;;;22.77;44.14;95834.00;5014278;28;20231;-33
2023/09/05 02:47:31;;;;;;;0.40;0.40;;;22.60;59.10;;;22.73;44.29;95833.69;5014065;28;20320;-32
2023/09/05 02:49:58;;;;;;;0.40;0.40;;;22.60;59.00;;;22.70;44.14;95824.31;5015129;28;20199;-34
2023/09/05 02:52:26;;;;;;;0.40;0.40;;;22.50;58.90;;;22.66;44.25;95827.72;4998205;28;20590;-32
2023/09/05 02:55:11;;;;;;;0.30;0.30;;;22.50;58.80;;;22.55;44.69;95816.84;5014099;28;20194;-33
2023/09/05 02:57:38;;;;;;;0.40;0.40;;;22.50;58.80;;;22.50;44.22;95818.66;5014992;28;20257;-33
2023/09/05 03:00:07;;;;;;;0.40;0.40;;;22.40;58.60;;;22.45;44.67;95815.88;5014867;28;20193;-36
2023/09/05 03:02:35;;;;;;;0.40;0.40;;;22.40;58.90;;;22.43;44.83;95821.50;5015075;28;20197;-36
2023/09/05 03:05:05;;;;;;;0.40;0.40;;;22.40;58.80;;;22.41;44.50;95820.94;5014853;28;20198;-33
2023/09/05 03:07:33;;;;;;;0.40;0.40;;;22.40;59.10;;;22.36;44.71;95808.28;5014605;28;20575;-33
2023/09/05 03:10:00;;;;;;;0.40;0.40;;;22.30;59.00;;;22.35;44.84;95811.16;5015568;28;20605;-32
2023/09/05 03:12:28;;;;;;;0.47;0.47;;;22.30;59.00;;;22.31;44.83;95807.38;5013650;28;20606;-32
2023/09/05 03:14:55;;;;;;;0.40;0.40;;;22.20;59.00;;;22.29;44.97;95815.66;5014689;28;20656;-32
2023/09/05 03:17:23;;;;;;;0.50;0.50;;;22.20;59.20;;;22.30;44.66;95814.59;5013650;28;20242;-35
2023/09/05 03:19:50;;;;;;;0.45;0.45;;;22.20;59.20;;;22.28;45.00;95811.34;5013777;28;20217;-33
2023/09/05 03:22:17;;;;;;;0.40;0.40;;;22.20;59.30;;;22.29;44.63;95820.16;5015019;28;20197;-33
2023/09/05 03:24:44;;;;;;;0.38;0.38;;;22.20;59.10;;;22.27;44.98;95820.41;5013487;28;20213;-34
2023/09/05 03:27:13;;;;;;;0.40;0.40;;;22.20;59.20;;;22.25;44.64;95817.16;5014951;28;20224;-33
2023/09/05 03:29:40;;;;;;;0.40;0.40;;;22.10;59.30;;;22.26;45.08;95821.47;5013531;28;20284;-36
2023/09/05 03:32:07;;;;;;;0.40;0.40;;;22.20;59.50;;;22.28;45.17;95823.91;5014387;28;20192;-32
2023/09/05 03:34:35;;;;;;;0.40;0.40;;;22.10;59.50;;;22.29;45.08;95818.31;5014979;28;20649;-32
2023/09/05 03:37:02;;;;;;;0.40;0.40;;;22.10;59.50;;;22.28;44.99;95819.38;5014455;28;20198;-32
2023/09/05 03:39:29;;;;;;;0.40;0.40;;;22.10;59.40;;;22.31;44.88;95820.75;5014852;28;20276;-35
2023/09/05 03:41:56;;;;;;;0.40;0.40;;;22.10;59.30;;;22.29;45.12;95812.16;5014205;28;20718;-34
2023/09/05 03:44:23;;;;;;;0.52;0.52;;;22.10;59.30;;;22.28;44.66;95808.69;5014122;28;20251;-31
2023/09/05 03:46:50;;;;;;;0.40;0.40;;;22.10;59.30;;;22.27;45.02;95811.59;5014109;28;20224;-33
2023/09/05 03:49:17;;;;;;;0.40;0.40;;;22.10;59.40;;;22.26;44.77;95807.31;5014374;28;20284;-33
2023/09/05 03:51:45;;;;;;;0.40;0.40;;;22.10;59.30;;;22.20;45.17;95812.59;5014076;28;20211;-33
2023/09/05 03:54:12;;;;;;;0.40;0.40;;;22.10;59.30;;;22.19;45.01;95810.97;5014261;28;20201;-31
2023/09/05 03:56:40;;;;;;;0.40;0.40;;;22.10;59.40;;;22.20;44.84;95798.41;5013128;28;20216;-32
2023/09/05 03:59:07;;;;;;;0.40;0.40;;;22.10;59.60;;;22.20;45.07;95799.22;5014481;28;20736;-31
2023/09/05 04:01:34;;;;;;;0.40;0.40;;;22.10;59.60;;;22.22;45.00;95805.09;5013973;28;20201;-33
2023/09/05 04:04:01;;;;;;;0.50;0.50;;;22.10;59.60;;;22.24;45.01;95812.91;5013937;28;20231;-33
2023/09/05 04:06:28;;;;;;;0.40;0.40;;;22.10;59.50;;;22.21;45.06;95803.47;5013082;28;20216;-35
2023/09/05 04:08:55;;;;;;;0.47;0.47;;;22.10;59.60;;;22.21;45.11;95813.38;5012970;28;20697;-36
2023/09/05 04:11:25;;;;;;;0.40;0.40;;;22.10;59.60;;;22.22;45.12;95813.13;5012909;28;20201;-31
2023/09/05 04:13:52;;;;;;;0.50;0.50;;;22.10;59.60;;;22.23;45.19;95814.75;5013647;28;20201;-35
2023/09/05 04:16:19;;;;;;;0.47;0.47;;;22.10;59.70;;;22.26;45.34;95818.78;5013767;28;20224;-34
2023/09/05 04:18:46;;;;;;;0.50;0.50;;;22.10;59.60;;;22.29;44.93;95815.66;5013986;28;20304;-31
2023/09/05 04:21:13;;;;;;;0.40;0.40;;;22.10;59.70;;;22.28;45.09;95810.56;5012774;28;20211;-32
2023/09/05 04:23:40;;;;;;;0.30;0.30;;;22.10;59.50;;;22.23;44.73;95804.06;5013735;28;20196;-35
2023/09/05 04:26:07;;;;;;;0.40;0.40;;;22.10;59.40;;;22.20;44.76;95815.25;5012658;28;20279;-34
2023/09/05 04:28:34;;;;;;;0.40;0.40;;;22.10;59.50;;;22.19;45.02;95810.97;5012593;28;20221;-31
2023/09/05 04:31:04;;;;;;;0.40;0.40;;;22.10;59.40;;;22.17;44.80;95813.06;5012787;28;20284;-31
2023/09/05 04:33:37;;;;;;;0.40;0.40;;;22.10;59.40;;;22.17;44.96;95821.06;5013713;28;20199;-32
2023/09/05 04:36:08;;;;;;;0.40;0.40;;;22.10;59.40;;;22.17;44.89;95823.75;5012566;28;20215;-33
2023/09/05 04:38:37;;;;;;;0.40;0.40;;;22.10;59.40;;;22.17;44.80;95818.41;5012500;28;20574;-33
2023/09/05 04:41:05;;;;;;;0.40;0.40;;;22.00;59.40;;;22.17;44.75;95814.94;5012499;28;20199;-33
2023/09/05 04:43:33;;;;;;;0.50;0.50;;;22.10;59.60;;;22.17;45.12;95821.06;5012255;28;20586;-32
2023/09/05 04:46:03;;;;;;;0.40;0.40;;;22.00;59.50;;;22.16;45.35;95827.47;5013405;28;20229;-37
2023/09/05 04:48:30;;;;;;;0.50;0.50;;;22.00;59.70;;;22.19;45.16;95829.66;5012501;28;20262;-31
2023/09/05 04:50:59;;;;;;;0.50;0.50;;;22.00;59.80;;;22.22;45.43;95836.38;5013188;28;20201;-33
2023/09/05 04:53:26;;;;;;;0.30;0.30;;;22.00;59.80;;;22.23;45.41;95841.47;5012776;28;20198;-34
2023/09/05 04:55:56;;;;;;;0.40;0.40;;;22.00;60.70;;;22.27;45.03;95836.44;5013098;28;20539;-33
2023/09/05 04:58:23;;;;;;;0.40;0.40;;;22.10;60.00;;;22.29;45.42;95842.38;5013413;28;20520;-32
2023/09/05 05:00:51;;;;;;;0.40;0.40;;;22.10;60.00;;;22.33;45.54;95838.16;4996332;28;20653;-33
2023/09/05 05:03:18;;;;;;;0.40;0.40;;;22.10;60.10;;;22.38;45.20;95846.28;5013352;28;20236;-33
2023/09/05 05:05:48;;;;;;;0.40;0.40;;;22.10;60.10;;;22.45;45.49;95847.97;5012982;28;20269;-34
2023/09/05 05:08:15;;;;;;;0.40;0.40;;;22.20;60.20;;;22.47;45.26;95835.19;5013007;28;20658;-32
2023/09/05 05:10:42;;;;;;;0.40;0.40;;;22.20;60.20;;;22.51;45.53;95841.69;5013432;28;20204;-34
2023/09/05 05:13:09;;;;;;;0.40;0.40;;;22.20;60.20;;;22.54;45.35;95833.16;5011803;28;20216;-33
2023/09/05 05:15:36;;;;;;;0.52;0.52;;;22.30;60.20;;;22.58;45.27;95830.78;5013334;28;20192;-34
2023/09/05 05:18:04;;;;;;;0.40;0.40;;;22.30;61.10;;;22.61;45.30;95836.47;5012911;28;20264;-33
2023/09/05 05:20:34;;;;;;;0.40;0.40;;;22.40;60.20;;;22.64;45.14;95835.16;5012849;28;20190;-33
2023/09/05 05:23:01;;;;;;;0.40;0.40;;;22.40;60.20;;;22.68;45.43;95844.31;5012672;28;20607;-32
2023/09/05 05:25:28;;;;;;;0.43;0.43;;;22.40;60.20;;;22.71;45.36;95841.16;5012608;28;20240;-32
2023/09/05 05:27:55;;;;;;;0.40;0.40;;;22.50;60.30;;;22.74;45.44;95838.00;5012592;28;20299;-35
2023/09/05 05:30:22;;;;;;;0.40;0.40;;;22.50;60.20;;;22.77;45.41;95840.16;5012604;28;20189;-32
2023/09/05 05:32:49;;;;;;;0.40;0.40;;;22.60;60.30;;;22.80;45.27;95839.69;5012028;28;20212;-34
2023/09/05 05:35:16;;;;;;;0.40;0.40;;;22.60;60.20;;;22.83;45.48;95835.69;5012626;28;20280;-33
2023/09/05 05:37:43;;;;;;;0.40;0.40;;;22.60;60.30;;;22.85;45.45;95833.56;5011982;28;20178;-31
2023/09/05 05:40:13;;;;;;;0.40;0.40;;;22.60;60.30;;;22.89;45.63;95840.06;5012460;28;20284;-31
2023/09/05 05:42:39;;;;;;;0.40;0.40;;;22.70;60.30;;;22.92;45.71;95842.22;5012432;28;20201;-32
2023/09/05 05:45:07;;;;;;;0.40;0.40;;;22.70;60.30;;;22.94;45.63;95847.34;5013299;28;20280;-31
2023/09/05 05:47:34;;;;;;;0.40;0.40;;;22.80;60.30;;;22.97;45.69;95845.00;5012255;28;20656;-32
2023/09/05 05:50:02;;;;;;;0.40;0.40;;;22.80;60.30;;;22.98;45.86;95843.13;5011763;28;20189;-32
2023/09/05 05:52:29;;;;;;;0.40;0.40;;;22.80;60.30;;;23.02;45.44;95844.22;5012296;28;20653;-32
2023/09/05 05:54:56;;;;;;;0.30;0.30;;;22.90;60.30;;;23.03;45.65;95849.34;5012720;28;20299;-31
2023/09/05 05:57:24;;;;;;;0.35;0.35;;;22.90;60.30;;;23.07;45.81;95847.00;5012414;28;20210;-32
2023/09/05 05:59:51;;;;;;;0.40;0.40;;;22.90;60.30;;;23.09;45.61;95841.38;5012545;28;20557;-30
2023/09/05 06:02:18;;;;;;;0.40;0.40;;;22.90;60.20;;;23.12;45.45;95857.75;5011374;28;20225;-31
2023/09/05 06:04:45;;;;;;;0.40;0.40;;;23.00;60.30;;;23.14;45.49;95854.81;5013538;28;20714;-36
2023/09/05 06:07:12;;;;;;;0.40;0.40;;;23.00;60.30;;;23.16;45.61;95858.91;5015974;28;20640;-34
2023/09/05 06:09:39;;;;;;;0.30;0.30;;;23.00;61.20;;;23.18;45.36;95854.09;5015754;28;20636;-32
2023/09/05 06:12:07;;;;;;;0.30;0.30;;;23.00;60.20;;;23.18;45.40;95854.09;5015885;28;20280;-33
2023/09/05 06:14:34;;;;;;;0.30;0.30;;;23.00;60.20;;;23.21;45.37;95855.47;5015569;28;20188;-31
2023/09/05 06:17:03;;;;;;;0.40;0.40;;;23.00;60.20;;;23.23;45.50;95863.25;5015383;28;20229;-31
2023/09/05 06:19:29;;;;;;;0.30;0.30;;;23.00;60.20;;;23.24;45.28;95856.84;5015797;28;20218;-34
2023/09/05 06:21:58;;;;;;;0.30;0.30;;;23.10;60.30;;;23.27;45.48;95859.03;5015778;28;20292;-34
2023/09/05 06:24:25;;;;;;;0.40;0.40;;;23.20;60.30;;;23.27;45.52;95861.72;5015453;28;20197;-33
2023/09/05 06:26:54;;;;;;;0.40;0.40;;;23.20;60.20;;;23.29;45.52;95864.94;5015386;28;20189;-32
2023/09/05 06:29:21;;;;;;;0.35;0.35;;;23.10;60.10;;;23.30;45.63;95869.22;5015506;28;20226;-34
2023/09/05 06:31:48;;;;;;;0.30;0.30;;;23.20;60.20;;;23.31;45.40;95869.00;5015489;28;20198;-32
2023/09/05 06:34:16;;;;;;;0.40;0.40;;;23.20;60.20;;;23.34;45.45;95865.00;5015516;28;20541;-35
2023/09/05 06:36:43;;;;;;;0.30;0.30;;;23.20;60.10;;;23.33;45.51;95858.84;5015245;28;20630;-31
2023/09/05 06:39:11;;;;;;;0.30;0.30;;;23.20;60.10;;;23.36;45.29;95860.19;5015660;28;20198;-36
2023/09/05 06:41:40;;;;;;;0.32;0.32;;;23.20;60.10;;;23.37;45.35;95859.16;5014618;28;20212;-34
2023/09/05 06:44:07;;;;;;;0.40;0.40;;;23.20;60.10;;;23.39;45.51;95862.38;5015086;28;20255;-31
2023/09/05 06:46:35;;;;;;;0.50;0.50;;;23.20;60.10;;;23.41;45.51;95862.13;5015394;28;20288;-32
2023/09/05 06:49:03;;;;;;;0.40;0.40;;;23.20;60.10;;;23.41;45.37;95864.81;5015012;28;20308;-31
2023/09/05 06:51:30;;;;;;;0.40;0.40;;;23.30;60.20;;;23.43;45.38;95868.84;5015539;28;20189;-34
2023/09/05 06:54:01;;;;;;;0.30;0.30;;;23.30;60.20;;;23.43;45.41;95868.06;5014971;28;20295;-31
2023/09/05 06:56:28;;;;;;;0.40;0.40;;;23.30;60.10;;;23.45;45.16;95868.63;5015036;28;20187;-33
2023/09/05 06:58:55;;;;;;;0.30;0.30;;;23.30;60.10;;;23.48;45.14;95873.47;5015023;28;20237;-32
2023/09/05 07:01:24;;;;;;;0.30;0.30;;;23.30;60.10;;;23.48;45.44;95865.44;5014898;28;20227;-33
2023/09/05 07:03:51;;;;;;;0.40;0.40;;;23.30;60.10;;;23.50;45.09;95869.47;5015071;28;20199;-34
2023/09/05 07:06:19;;;;;;;0.40;0.40;;;23.30;60.10;;;23.52;45.18;95873.78;5015084;28;20227;-37
2023/09/05 07:08:47;;;;;;;0.40;0.40;;;23.30;60.10;;;23.52;45.45;95871.09;5015091;28;20278;-32
2023/09/05 07:11:16;;;;;;;0.40;0.40;;;23.30;60.10;;;23.54;45.37;95874.34;5015295;28;20193;-32
2023/09/05 07:13:43;;;;;;;0.38;0.38;;;23.40;60.20;;;23.55;45.33;95875.97;5015231;28;20236;-33
2023/09/05 07:16:10;;;;;;;0.40;0.40;;;23.40;60.20;;;23.57;45.22;95885.38;5014572;28;20223;-32
2023/09/05 07:18:37;;;;;;;0.40;0.40;;;23.40;60.10;;;23.57;45.57;95877.31;5014533;28;20240;-35
2023/09/05 07:21:04;;;;;;;0.43;0.43;;;23.40;60.10;;;23.59;45.29;95882.44;5014594;28;20209;-36
2023/09/05 07:23:32;;;;;;;0.40;0.40;;;23.40;60.10;;;23.60;45.24;95884.03;5014522;28;20197;-34
2023/09/05 07:26:04;;;;;;;0.50;0.50;;;23.50;60.20;;;23.62;45.31;95879.22;5014610;28;20279;-36
2023/09/05 07:28:32;;;;;;;0.50;0.50;;;23.50;60.10;;;23.63;45.27;95891.56;5014928;28;20204;-32
2023/09/05 07:31:00;;;;;;;0.30;0.30;;;23.50;60.10;;;23.63;45.40;95881.69;5014438;28;20598;-34
2023/09/05 07:33:28;;;;;;;0.50;0.50;;;23.50;60.10;;;23.65;45.29;95890.25;5014618;28;20200;-38
2023/09/05 07:35:55;;;;;;;0.40;0.40;;;23.50;60.10;;;23.66;45.08;95896.44;5014500;28;20284;-36
2023/09/05 07:38:24;;;;;;;0.30;0.30;;;23.50;60.10;;;23.68;45.02;95902.34;5014068;28;20285;-37
2023/09/05 07:41:05;;;;;;;0.40;0.40;;;23.50;60.10;;;23.67;45.12;95895.38;5014364;28;20199;-36
2023/09/05 07:43:33;;;;;;;0.57;0.57;;;23.50;60.10;;;23.71;45.08;95895.69;5014286;28;20183;-36
2023/09/05 07:46:01;;;;;;;0.50;0.50;;;23.50;60.00;;;23.71;45.36;95899.16;5014054;28;20690;-36
2023/09/05 07:48:28;;;;;;;0.40;0.40;;;23.50;60.10;;;23.73;45.11;95897.06;5014145;28;20224;-33
2023/09/05 07:51:07;;;;;;;0.40;0.40;;;23.50;60.00;;;23.74;45.13;95882.59;5014395;28;20262;-33
2023/09/05 07:53:36;;;;;;;0.47;0.47;;;23.50;60.00;;;23.76;44.98;95885.03;5014397;28;20178;-33
2023/09/05 07:56:03;;;;;;;0.50;0.50;;;23.60;60.00;;;23.77;44.94;95883.97;5014249;28;20236;-34
2023/09/05 07:58:31;;;;;;;0.30;0.30;;;23.60;60.00;;;23.78;45.19;95886.38;5013164;28;20203;-36
2023/09/05 08:00:59;;;;;;;0.40;0.40;;;23.60;60.00;;;23.80;44.99;95886.13;5014003;28;20194;-35
2023/09/05 08:03:27;;;;;;;0.40;0.40;;;23.60;60.00;;;23.82;45.03;95887.50;5013412;28;20285;-35
2023/09/05 08:05:54;;;;;;;0.30;0.30;;;23.60;60.10;;;23.84;44.94;95892.63;5014194;28;20195;-37
2023/09/05 08:08:21;;;;;;;0.50;0.50;;;23.60;60.00;;;23.84;44.96;95884.56;5013800;28;20230;-38
2023/09/05 08:10:49;;;;;;;0.30;0.30;;;23.60;60.00;;;23.88;44.91;95896.41;5013879;28;20198;-37
2023/09/05 08:13:16;;;;;;;0.40;0.40;;;23.70;60.00;;;23.89;44.90;95891.84;5014052;28;20199;-33
2023/09/05 08:15:45;;;;;;;0.30;0.30;;;23.70;60.00;;;23.91;44.91;95895.09;5013249;28;20221;-35
2023/09/05 08:18:12;;;;;;;0.52;0.52;;;23.70;60.00;;;23.91;45.02;95890.56;5013808;28;20242;-34
2023/09/05 08:20:42;;;;;;;0.30;0.30;;;23.70;60.00;;;23.93;45.07;95891.13;5013664;28;20209;-35
2023/09/05 08:23:13;;;;;;;0.38;0.38;;;23.70;60.00;;;23.94;45.08;95889.25;5013983;28;20697;-35
2023/09/05 08:25:40;;;;;;;0.47;0.47;;;23.70;60.00;;;23.96;45.15;95887.13;5013797;28;20277;-36
2023/09/05 08:28:09;;;;;;;0.40;0.40;;;23.70;60.00;;;23.96;45.14;95887.13;5012728;28;20249;-35
2023/09/05 08:30:36;;;;;;;0.30;0.30;;;23.70;60.00;;;23.98;45.02;95891.16;5012625;28;20243;-34
2023/09/05 08:33:03;;;;;;;0.30;0.30;;;23.70;60.00;;;24.00;45.14;95898.97;5013462;28;20240;-34
2023/09/05 08:35:31;;;;;;;0.40;0.40;;;23.70;60.00;;;24.03;45.21;95892.28;5013980;28;20206;-35
2023/09/05 08:38:02;;;;;;;0.30;0.30;;;23.80;60.00;;;24.03;45.10;95890.41;5013658;28;20198;-35
2023/09/05 08:40:34;;;;;;;0.40;0.40;;;23.80;60.00;;;24.05;44.82;95888.28;5012852;28;20215;-35
2023/09/05 08:43:04;;;;;;;0.30;0.30;;;23.80;60.00;;;24.07;44.97;95885.34;5013392;28;20277;-34
2023/09/05 08:45:35;;;;;;;0.30;0.30;;;23.80;59.90;;;24.10;44.81;95884.84;5013675;28;20198;-38
2023/09/05 08:48:03;;;;;;;0.30;0.30;;;23.80;59.90;;;24.09;44.87;95881.34;5013483;28;20212;-36
2023/09/05 08:50:33;;;;;;;0.40;0.40;;;23.90;60.00;;;24.12;44.67;95872.00;5013230;28;20276;-34
2023/09/05 08:53:11;;;;;;;0.30;0.30;;;23.90;60.00;;;24.12;44.70;95878.19;5013745;28;20190;-35
2023/09/05 08:55:40;;;;;;;0.30;0.30;;;23.90;59.90;;;24.15;44.77;95882.22;5013344;28;20631;-36
2023/09/05 08:58:13;;;;;;;0.40;0.40;;;23.90;59.80;;;24.16;44.68;95869.59;5013120;28;20681;-36
2023/09/05 09:00:40;;;;;;;0.38;0.38;;;23.90;59.80;;;24.18;44.67;95873.69;5013065;28;20282;-33
2023/09/05 09:03:07;;;;;;;0.40;0.40;;;23.90;59.80;;;24.19;44.52;95869.91;5012247;28;20251;-35
2023/09/05 09:05:36;;;;;;;0.30;0.30;;;24.00;60.70;;;24.22;44.52;95874.78;5013021;28;20209;-35
2023/09/05 09:08:04;;;;;;;0.30;0.30;;;24.00;59.70;;;24.24;44.51;95863.78;5012901;28;20260;-33
2023/09/05 09:10:31;;;;;;;0.30;0.30;;;24.00;59.80;;;24.25;44.68;95862.72;5013059;28;20204;-33
2023/09/05 09:13:19;;;;;;;0.30;0.30;;;24.00;59.70;;;24.26;44.51;95861.66;5013140;28;20665;-35
2023/09/05 09:15:46;;;;;;;0.40;0.40;;;24.00;59.50;;;24.27;44.30;95856.03;5013292;28;20283;-32
2023/09/05 09:18:14;;;;;;;0.30;0.30;;;24.00;59.40;;;24.29;44.33;95853.94;5012695;28;20643;-34
2023/09/05 09:20:46;;;;;;;0.40;0.40;;;24.00;59.50;;;24.30;44.38;95850.19;5013483;28;20270;-34
2023/09/05 09:23:26;;;;;;;0.30;0.30;;;24.00;59.40;;;24.33;44.21;95854.22;5013051;28;20245;-35
2023/09/05 09:25:56;;;;;;;0.30;0.30;;;24.00;59.30;;;24.33;44.22;95851.53;5012811;28;20652;-37
2023/09/05 09:28:26;;;;;;;0.30;0.30;;;24.10;60.40;;;24.36;44.08;95842.97;5012871;28;20309;-35
2023/09/05 09:31:03;;;;;;;0.40;0.40;;;24.10;59.30;;;24.37;44.02;95849.16;5013013;28;20195;-36
2023/09/05 09:33:32;;;;;;;0.40;0.40;;;24.10;59.10;;;24.39;43.87;95849.69;5013196;28;20175;-35
2023/09/05 09:36:05;;;;;;;0.32;0.32;;;24.10;59.10;;;24.41;43.95;95842.22;5012974;28;20194;-36
2023/09/05 09:38:33;;;;;;;0.40;0.40;;;24.10;58.80;;;24.42;43.62;95841.94;5012321;28;20621;-37
2023/09/05 09:41:02;;;;;;;0.40;0.40;;;24.10;59.00;;;24.44;43.80;95847.88;5012728;28;20202;-35
2023/09/05 09:43:35;;;;;;;0.38;0.38;;;24.10;58.90;;;24.48;43.79;95852.72;5011530;28;20272;-35
2023/09/05 09:46:04;;;;;;;0.30;0.30;;;24.20;58.90;;;24.49;43.94;95849.00;5012575;28;20255;-35
2023/09/05 09:48:34;;;;;;;0.30;0.30;;;24.10;58.90;;;24.50;43.64;95847.91;5011975;28;20314;-36
2023/09/05 09:51:06;;;;;;;0.30;0.30;;;24.20;59.00;;;24.52;43.54;95845.78;5011531;28;20187;-35
2023/09/05 09:53:39;;;;;;;0.35;0.35;;;24.20;58.90;;;24.53;43.63;95848.19;5011794;28;20192;-36
2023/09/05 09:56:12;;;;;;;0.40;0.40;;;24.20;58.80;;;24.55;43.52;95842.59;5013118;28;20191;-35
2023/09/05 09:58:44;;;;;;;0.35;0.35;;;24.20;58.70;;;24.56;43.66;95836.97;5012013;28;20206;-38
2023/09/05 10:01:15;;;;;;;0.30;0.30;;;24.30;58.90;;;24.60;43.56;95839.94;5011849;28;20213;-35
2023/09/05 10:03:46;;;;;;;0.30;0.30;;;24.30;58.70;;;24.60;43.68;95835.38;5011382;28;20652;-47
2023/09/05 10:06:16;;;;;;;0.40;0.40;;;24.30;58.80;;;24.62;43.76;95827.88;5012466;28;20226;-34
2023/09/05 10:08:46;;;;;;;0.50;0.50;;;24.30;58.70;;;24.64;43.56;95824.94;4995047;28;20217;-33
2023/09/05 10:11:15;;;;;;;0.30;0.30;;;24.30;58.60;;;24.67;43.40;95827.13;5012513;28;20609;-33
2023/09/05 10:13:44;;;;;;;0.30;0.30;;;24.40;58.70;;;24.69;43.87;95811.56;5011445;28;20323;-35
2023/09/05 10:16:12;;;;;;;0.60;0.60;;;24.40;58.70;;;24.71;43.50;95811.34;5012345;28;20685;-33
2023/09/05 10:18:46;;;;;;;0.32;0.32;;;24.40;60.00;;;24.73;43.44;95815.38;5013119;28;20274;-34
2023/09/05 10:21:16;;;;;;;0.60;0.60;;;24.40;58.50;;;24.74;43.46;95814.31;5012246;28;20222;-37
2023/09/05 10:23:43;;;;;;;0.38;0.38;;;24.40;58.50;;;24.76;43.25;95814.84;5012250;28;20204;-32
2023/09/05 10:26:13;;;;;;;0.30;0.30;;;24.40;58.50;;;24.78;43.27;95804.66;5012038;28;20236;-35